Le Roy, Michigan
Current Conditions -  °F | °C
As of 6:53 AM on Thursday 23 Oct 2014 (Local Time) from KCAD Reporting Station
Moderate Fog Moderate Fog  
Wind Chill: 28°   Ceiling: 100
Heat Index: 28°   Visibility: 0.25mi
Dew Point: 27°   Wind: 0mph
Humidity: 99%   Direction: NA
Pressure: 30.22"   Gusts: NA
Location:  44.0236°N, 85.4348°W
Report Text: KCAD 231053Z AUTO 00000KT 1/4SM FZFG OVC001 M02/M02 A3022 RMK AO2 T10241026
Loading
Personal Weather Stations






























Interactive Weather Map
Tropical Storm Tracking
New forecast layout! Learn more

10-Day Weather Forecast

Advertisements
Track Severe Weather on mobile